Time;durP1;ratioP1;P1;durP2;ratioP2;P2;SDS_P1;SDS_P2;PMS_P1;PMS_P2;Temp;Humidity;BMP_temperature;BMP_pressure;BME280_temperature;BME280_humidity;BME280_pressure;Samples;Min_cycle;Max_cycle;Signal;HPM_P1;HPM_P2
2023/04/08 00:03:15;;;;;;;33.70;22.30;;;;;;;5.88;81.26;100498.36;125835;1305;638092;-68
2023/04/08 00:11:03;;;;;;;33.60;23.40;;;;;;;5.83;81.19;100506.97;127623;1287;116312;-64
2023/04/08 00:15:05;;;;;;;35.90;24.30;;;;;;;5.80;81.26;100505.12;123815;1284;5420212;-65
2023/04/08 00:19:06;;;;;;;36.20;23.80;;;;;;;5.79;81.36;100505.52;126082;1302;115046;-66
2023/04/08 00:23:11;;;;;;;33.70;22.10;;;;;;;5.77;81.58;100507.85;125355;1307;114970;-65
2023/04/08 00:27:11;;;;;;;36.60;22.70;;;;;;;5.76;81.72;100506.98;124712;1314;115384;-64
2023/04/08 00:31:01;;;;;;;35.10;22.70;;;;;;;5.75;81.56;100502.60;124610;1312;129991;-65
2023/04/08 00:35:03;;;;;;;32.70;22.20;;;;;;;5.74;81.65;100507.22;124746;1314;115364;-65
2023/04/08 00:39:05;;;;;;;32.80;21.90;;;;;;;5.75;81.74;100508.45;124742;1315;115233;-69
2023/04/08 00:42:55;;;;;;;;;;;;;;;;;;;;;
2023/04/08 00:51:23;;;;;;;38.30;24.50;;;;;;;5.72;81.91;100518.27;126154;1307;635413;-67
2023/04/08 00:55:27;;;;;;;33.70;22.20;;;;;;;5.68;82.02;100519.80;129021;1276;128682;-64
2023/04/08 00:59:30;;;;;;;34.00;22.00;;;;;;;5.67;82.04;100518.04;128236;1292;115216;-65
2023/04/08 01:03:29;;;;;;;31.70;22.60;;;;;;;5.68;82.33;100527.23;123651;1305;5437234;-64
2023/04/08 01:15:53;;;;;;;37.70;22.60;;;;;;;5.65;82.55;100532.45;126240;1296;114955;-67
2023/04/08 01:19:54;;;;;;;35.00;23.10;;;;;;;5.63;82.74;100535.68;125641;1313;128726;-77
2023/04/08 01:23:55;;;;;;;40.00;23.80;;;;;;;5.63;82.92;100542.57;125175;1319;114968;-65
2023/04/08 01:27:55;;;;;;;;;;;;;;;;;;;;;
2023/04/08 01:36:31;;;;;;;44.20;27.60;;;;;;;5.30;81.41;100565.71;126109;1303;639696;-64
2023/04/08 01:45:05;;;;;;;37.90;24.30;;;;;;;5.10;81.26;100565.81;125900;1301;639361;-65
2023/04/08 01:49:09;;;;;;;40.30;25.20;;;;;;;4.97;81.15;100569.09;127252;1289;127676;-65
2023/04/08 01:53:11;;;;;;;33.20;23.20;;;;;;;4.91;81.36;100577.90;126237;1297;114971;-64
2023/04/08 01:57:13;;;;;;;39.40;25.20;;;;;;;4.86;81.38;100579.79;121717;1305;5453163;-68
2023/04/08 02:05:48;;;;;;;33.50;22.80;;;;;;;4.75;81.44;100590.81;125735;1302;638476;-64
2023/04/08 02:09:43;;;;;;;;;;;;;;;;;;;;;
2023/04/08 02:13:35;;;;;;;;;;;;;;;;;;;;;
2023/04/08 02:25:53;;;;;;;28.00;19.70;;;;;;;4.43;81.46;100611.27;125132;1321;114906;-73
2023/04/08 02:34:28;;;;;;;28.80;18.80;;;;;;;4.40;81.32;100610.43;126064;1304;636219;-72
2023/04/08 02:38:28;;;;;;;;;;;;;;;;;;;;;
2023/04/08 02:42:46;;;;;;;30.30;19.30;;;;;;;4.32;81.15;100618.18;126052;1310;116453;-67
2023/04/08 02:51:15;;;;;;;29.30;19.80;;;;;;;4.34;81.15;100625.73;125971;1308;637563;-71
2023/04/08 02:55:18;;;;;;;31.40;20.80;;;;;;;4.31;81.05;100624.38;128528;1275;128641;-69
2023/04/08 02:59:20;;;;;;;29.50;20.20;;;;;;;4.33;81.23;100633.89;126909;1286;115307;-73
2023/04/08 03:03:03;;;;;;;;;;;;;;;4.31;81.11;100641.70;122471;1299;5427415;-72
2023/04/08 03:07:05;;;;;;;28.40;18.20;;;;;;;4.29;81.10;100643.17;126085;1298;115013;-72
2023/04/08 03:11:06;;;;;;;26.00;18.80;;;;;;;4.28;80.93;100647.44;125414;1324;114977;-66
2023/04/08 03:19:42;;;;;;;29.90;20.60;;;;;;;4.27;80.57;100655.91;126067;1294;637630;-65
2023/04/08 03:23:37;;;;;;;28.40;18.80;;;;;;;4.26;80.72;100661.60;127515;1287;128021;-67
2023/04/08 03:27:40;;;;;;;28.70;18.70;;;;;;;4.28;80.64;100663.52;127317;1284;115361;-63
2023/04/08 03:31:45;;;;;;;28.70;18.80;;;;;;;4.29;80.65;100660.67;122878;1292;5426099;-67
2023/04/08 03:35:46;;;;;;;28.20;18.10;;;;;;;4.29;80.37;100666.88;125606;1323;114842;-66
2023/04/08 03:44:20;;;;;;;32.70;21.10;;;;;;;4.28;80.19;100672.00;125797;1299;636188;-72
2023/04/08 03:48:02;;;;;;;29.60;19.80;;;;;;;4.25;80.32;100676.11;127466;1288;128990;-66
2023/04/08 03:56:39;;;;;;;31.60;21.60;;;;;;;4.22;79.89;100685.91;125847;1304;640907;-65
2023/04/08 04:00:42;;;;;;;33.30;23.70;;;;;;;4.19;79.88;100685.95;127800;1284;128699;-70
2023/04/08 04:04:45;;;;;;;30.40;21.40;;;;;;;4.20;80.10;100696.02;126938;1311;115292;-64
2023/04/08 04:08:49;;;;;;;29.70;18.50;;;;;;;4.19;79.85;100697.61;122427;1293;5485130;-69
2023/04/08 04:12:50;;;;;;;25.10;18.30;;;;;;;4.17;79.59;100703.48;125145;1307;114818;-74
2023/04/08 04:16:51;;;;;;;34.50;23.60;;;;;;;4.13;79.60;100707.09;125055;1309;114948;-65
2023/04/08 04:25:27;;;;;;;32.00;23.90;;;;;;;4.15;79.67;100717.84;125897;1312;637713;-68
2023/04/08 04:29:23;;;;;;;33.10;23.40;;;;;;;4.14;79.69;100723.87;127057;1299;127534;-65
2023/04/08 04:33:26;;;;;;;35.10;23.10;;;;;;;4.13;79.52;100728.83;126821;1285;116490;-64
2023/04/08 04:37:07;;;;;;;;;;;;;;;4.15;79.57;100733.58;122080;1300;5426251;-67
2023/04/08 04:41:09;;;;;;;43.50;28.50;;;;;;;4.12;79.52;100740.34;125161;1308;114999;-65
2023/04/08 04:45:03;;;;;;;;;;;;;;;;;;;;;
2023/04/08 04:53:57;;;;;;;64.00;45.00;;;;;;;4.12;79.14;100756.24;125815;1304;653452;-65
2023/04/08 04:57:49;;;;;;;33.70;23.20;;;;;;;4.08;79.18;100754.71;127369;1284;127961;-64
2023/04/08 05:01:52;;;;;;;29.50;20.30;;;;;;;4.07;79.01;100765.51;127238;1283;115127;-68
2023/04/08 05:05:54;;;;;;;25.70;18.70;;;;;;;4.05;78.84;100766.42;122873;1292;5424138;-64
2023/04/08 05:09:57;;;;;;;37.80;25.90;;;;;;;4.04;78.74;100781.46;125943;1301;114961;-65
2023/04/08 05:13:58;;;;;;;64.50;43.90;;;;;;;4.04;78.97;100787.11;124688;1331;115008;-65
2023/04/08 05:22:33;;;;;;;41.40;26.00;;;;;;;4.09;78.81;100790.39;125816;1314;639674;-64
2023/04/08 05:26:36;;;;;;;27.80;19.60;;;;;;;4.13;78.82;100798.13;126669;1293;128073;-66
2023/04/08 05:30:37;;;;;;;27.00;19.50;;;;;;;4.15;78.55;100805.70;125644;1299;115247;-63
2023/04/08 05:34:38;;;;;;;33.10;22.70;;;;;;;4.17;78.70;100804.95;120864;1311;5445247;-64
2023/04/08 05:38:30;;;;;;;;;;;;;;;;;;;;;
2023/04/08 05:51:08;;;;;;;45.30;28.90;;;;;;;4.33;78.73;100822.39;127693;1286;128905;-65
2023/04/08 05:55:11;;;;;;;41.10;26.90;;;;;;;4.36;78.49;100825.89;127009;1308;115391;-69
2023/04/08 05:59:14;;;;;;;37.70;25.50;;;;;;;4.37;78.55;100824.46;122775;1296;5495057;-64
2023/04/08 06:03:16;;;;;;;41.80;27.50;;;;;;;4.36;78.23;100832.08;125652;1304;114853;-72
2023/04/08 06:15:49;;;;;;;40.40;28.40;;;;;;;4.44;78.06;100839.37;126172;1299;651341;-67
2023/04/08 06:19:52;;;;;;;38.80;24.70;;;;;;;4.52;78.27;100841.72;127916;1282;128886;-69
2023/04/08 06:23:54;;;;;;;33.80;22.90;;;;;;;4.63;77.81;100848.27;126753;1293;115484;-70
2023/04/08 06:27:57;;;;;;;35.50;22.80;;;;;;;4.77;77.65;100851.42;121937;1299;5419158;-67
2023/04/08 06:48:37;;;;;;;26.40;20.10;;;;;;;5.42;75.22;100877.54;129448;1267;127840;-69
2023/04/08 06:56:42;;;;;;;30.80;21.30;;;;;;;5.52;74.92;100881.95;124739;1274;5469305;-64
2023/04/08 07:00:44;;;;;;;26.30;18.90;;;;;;;5.61;74.87;100887.81;127469;1305;114949;-65
2023/04/08 07:04:45;;;;;;;24.70;18.50;;;;;;;5.69;74.60;100891.55;126642;1295;115239;-65
2023/04/08 07:08:45;;;;;;;;;;;;;;;;;;;;;
2023/04/08 07:17:05;;;;;;;;;;;;;;;;;;;;;
2023/04/08 07:21:08;;;;;;;26.80;19.80;;;;;;;5.94;73.83;100909.85;128392;1298;127856;-66
2023/04/08 07:25:11;;;;;;;27.50;19.60;;;;;;;5.98;73.87;100913.48;129003;1271;114768;-65
2023/04/08 07:29:05;;;;;;;;;;;;;;;;;;;;;
2023/04/08 07:33:09;;;;;;;24.50;16.80;;;;;;;5.92;73.50;100921.40;127630;1285;115006;-65
2023/04/08 07:37:11;;;;;;;24.10;17.70;;;;;;;5.94;73.27;100924.73;126745;1303;114997;-68
2023/04/08 07:41:12;;;;;;;23.10;16.70;;;;;;;6.04;73.37;100929.70;126166;1300;130262;-64
2023/04/08 07:45:13;;;;;;;23.90;16.20;;;;;;;6.16;73.16;100936.19;125684;1310;115302;-65
2023/04/08 07:53:48;;;;;;;23.80;17.40;;;;;;;6.24;72.64;100939.73;125592;1299;638470;-64
2023/04/08 08:01:59;;;;;;;17.30;13.90;;;;;;;6.52;72.64;100946.08;126705;1311;114827;-67
2023/04/08 08:06:01;;;;;;;19.60;14.90;;;;;;;6.60;72.31;100946.61;122272;1296;5435489;-65
2023/04/08 08:10:01;;;;;;;20.90;15.50;;;;;;;6.77;72.20;100950.48;125265;1310;114996;-64
2023/04/08 08:14:03;;;;;;;18.10;14.40;;;;;;;6.92;72.04;100952.05;124042;1316;115100;-64
2023/04/08 08:18:04;;;;;;;19.80;14.60;;;;;;;7.09;72.20;100951.48;124343;1332;129676;-62
2023/04/08 08:30:31;;;;;;;;;;;;;;;;;;;;;
2023/04/08 08:34:36;;;;;;;21.20;16.20;;;;;;;7.09;70.50;100964.28;128989;1275;127992;-67
2023/04/08 08:39:03;;;;;;;18.90;14.30;;;;;;;7.09;69.94;100962.31;127963;1284;115285;-65
2023/04/08 08:42:39;;;;;;;21.30;16.70;;;;;;;7.10;69.95;100965.15;123255;1306;5421956;-70
2023/04/08 08:50:36;;;;;;;21.00;15.80;;;;;;;7.09;70.22;100968.36;126143;1298;114795;-65
2023/04/08 08:54:38;;;;;;;22.40;17.10;;;;;;;7.18;70.11;100969.90;124987;1326;115009;-75
2023/04/08 09:03:26;;;;;;;26.00;19.50;;;;;;;7.42;69.88;100976.59;125671;1314;638689;-74
2023/04/08 09:11:28;;;;;;;25.40;19.10;;;;;;;7.63;69.65;100991.02;126709;1293;115343;-69
2023/04/08 09:15:30;;;;;;;18.20;12.90;;;;;;;7.63;69.11;100996.69;122097;1301;5412371;-62
2023/04/08 09:19:31;;;;;;;24.50;17.60;;;;;;;7.66;68.64;100999.81;125673;1318;114893;-63
2023/04/08 09:23:32;;;;;;;23.20;17.60;;;;;;;7.72;69.25;101002.33;124936;1326;114933;-62
2023/04/08 09:32:22;;;;;;;22.80;16.10;;;;;;;8.02;68.27;101003.66;125167;1303;638511;-63
2023/04/08 09:36:26;;;;;;;22.90;16.80;;;;;;;8.25;68.39;100998.73;128194;1278;128745;-64
2023/04/08 09:40:27;;;;;;;20.40;15.30;;;;;;;8.60;68.01;101002.73;127352;1285;115380;-65
2023/04/08 09:44:32;;;;;;;23.40;16.10;;;;;;;8.98;67.84;101000.48;122500;1293;5444232;-66
2023/04/08 09:48:40;;;;;;;21.00;16.30;;;;;;;9.07;66.75;101003.06;125670;1301;115493;-64
2023/04/08 09:52:49;;;;;;;19.30;16.00;;;;;;;9.07;66.86;101001.83;125796;1304;114976;-63
2023/04/08 09:56:48;;;;;;;19.80;15.50;;;;;;;9.01;66.71;101001.67;125399;1320;114955;-64
2023/04/08 10:00:56;;;;;;;21.70;16.50;;;;;;;8.98;66.83;101005.68;124957;1319;128400;-64
2023/04/08 10:04:57;;;;;;;20.40;15.90;;;;;;;9.06;67.14;101005.23;124204;1314;115379;-62
2023/04/08 10:17:18;;;;;;;18.80;13.50;;;;;;;8.82;64.83;101017.93;128857;1282;128235;-63
2023/04/08 10:25:56;;;;;;;21.00;15.60;;;;;;;8.56;65.05;101025.46;124650;1276;5421276;-65
2023/04/08 10:30:18;;;;;;;20.70;15.30;;;;;;;8.71;65.65;101020.77;128464;1287;114947;-64
2023/04/08 10:34:47;;;;;;;20.60;15.00;;;;;;;8.92;65.38;101021.73;128044;1281;114863;-65
2023/04/08 10:42:44;;;;;;;21.40;16.10;;;;;;;9.22;64.68;101022.73;126183;1294;129943;-64
2023/04/08 10:46:45;;;;;;;22.90;16.20;;;;;;;9.45;64.31;101020.74;125784;1302;115547;-64
2023/04/08 10:55:29;;;;;;;20.70;15.20;;;;;;;9.98;64.05;101015.73;125385;1305;638643;-62
2023/04/08 11:03:33;;;;;;;18.30;14.50;;;;;;;10.08;62.68;101015.00;126178;1315;114833;-63
2023/04/08 11:16:28;;;;;;;18.90;15.00;;;;;;;10.90;64.36;101011.08;127019;1287;128420;-66
2023/04/08 11:20:30;;;;;;;18.10;13.70;;;;;;;11.31;63.18;101011.77;126646;1293;116716;-64
2023/04/08 11:24:32;;;;;;;15.90;12.60;;;;;;;11.42;61.56;101013.65;122065;1297;5448064;-66
2023/04/08 11:28:34;;;;;;;16.80;13.20;;;;;;;11.38;60.67;101014.52;125019;1322;114967;-65
2023/04/08 11:32:35;;;;;;;15.50;12.70;;;;;;;11.27;60.28;101017.82;124308;1314;114935;-73
2023/04/08 11:41:15;;;;;;;16.70;13.00;;;;;;;10.88;59.86;101013.14;125833;1301;638505;-68
2023/04/08 11:45:15;;;;;;;14.90;12.50;;;;;;;10.79;59.92;101012.94;128182;1293;128801;-65
2023/04/08 11:49:18;;;;;;;16.90;12.60;;;;;;;10.85;60.06;101010.94;126507;1309;115293;-67
2023/04/08 11:53:23;;;;;;;12.20;10.30;;;;;;;11.03;60.10;101012.73;121680;1298;5417028;-63
2023/04/08 11:57:24;;;;;;;15.90;11.80;;;;;;;10.99;58.75;101012.86;125445;1299;114833;-67
2023/04/08 12:10:00;;;;;;;13.90;11.50;;;;;;;11.18;59.04;101010.67;125588;1303;636038;-65
2023/04/08 12:14:03;;;;;;;14.30;10.00;;;;;;;11.30;58.00;101009.66;126659;1292;128436;-63
2023/04/08 12:18:05;;;;;;;17.00;10.70;;;;;;;11.31;57.71;101008.91;125314;1318;116604;-64
2023/04/08 12:22:06;;;;;;;12.30;9.80;;;;;;;11.31;57.56;101010.91;120691;1324;5463298;-65
2023/04/08 12:30:41;;;;;;;13.10;10.80;;;;;;;11.23;57.25;101014.95;125648;1302;637736;-64
2023/04/08 12:46:48;;;;;;;14.00;10.50;;;;;;;11.33;57.24;101008.09;125856;1305;114919;-66
2023/04/08 12:50:49;;;;;;;13.20;10.80;;;;;;;11.33;56.91;101004.19;125398;1323;114789;-63
2023/04/08 13:11:29;;;;;;;12.70;10.20;;;;;;;11.33;56.65;100990.02;126246;1299;115495;-65
2023/04/08 13:15:30;;;;;;;12.90;10.10;;;;;;;11.34;56.26;100986.23;121437;1308;5428083;-64
2023/04/08 13:19:23;;;;;;;12.80;10.70;;;;;;;11.32;56.07;100987.95;124398;1313;114983;-66
2023/04/08 13:27:40;;;;;;;15.40;11.50;;;;;;;11.49;56.47;100985.63;125540;1303;636519;-67
2023/04/08 13:31:43;;;;;;;13.20;10.50;;;;;;;11.52;55.87;100988.35;128428;1279;128611;-68
2023/04/08 13:35:46;;;;;;;12.90;10.70;;;;;;;11.52;55.36;100984.44;127496;1288;115485;-67
2023/04/08 13:39:49;;;;;;;12.40;10.30;;;;;;;11.48;54.90;100985.14;122536;1295;5604343;-67
2023/04/08 13:47:51;;;;;;;;;;;;;;;;;;;;;
2023/04/08 13:51:53;;;;;;;12.10;10.40;;;;;;;11.69;54.76;100982.98;124899;1329;115086;-66
2023/04/08 14:04:34;;;;;;;11.90;10.30;;;;;;;11.84;54.94;100991.11;125970;1295;642003;-67
2023/04/08 14:08:27;;;;;;;12.70;11.20;;;;;;;12.02;55.01;100994.28;128641;1277;128845;-67
2023/04/08 14:12:30;;;;;;;14.30;11.30;;;;;;;12.15;54.57;100988.67;128393;1276;115032;-65
2023/04/08 14:16:35;;;;;;;14.00;11.10;;;;;;;12.27;54.97;100982.95;124229;1278;5461679;-65
2023/04/08 14:20:35;;;;;;;16.60;12.60;;;;;;;12.39;54.47;100980.25;127264;1289;114932;-66
2023/04/08 14:24:17;;;;;;;14.80;11.70;;;;;;;12.50;54.83;100978.15;125788;1301;114783;-67
2023/04/08 14:36:56;;;;;;;16.20;11.90;;;;;;;12.58;54.08;100977.21;128150;1292;127817;-66
2023/04/08 14:41:03;;;;;;;21.70;19.40;;;;;;;12.55;53.46;100981.33;127118;1307;116446;-65
2023/04/08 14:44:59;;;;;;;14.90;12.40;;;;;;;12.47;53.73;100983.31;122591;1303;5528350;-66
2023/04/08 14:49:00;;;;;;;15.90;12.70;;;;;;;12.35;53.32;100983.71;126129;1299;114967;-66
2023/04/08 14:53:02;;;;;;;14.20;11.30;;;;;;;12.23;53.69;100981.55;124985;1321;115169;-65
2023/04/08 15:01:35;;;;;;;;;;;;;;;;;;;;;
2023/04/08 15:05:39;;;;;;;16.10;12.80;;;;;;;12.25;54.02;100977.68;127659;1286;128958;-65
2023/04/08 15:09:42;;;;;;;16.20;12.20;;;;;;;12.32;54.43;100983.29;127251;1291;114945;-66
2023/04/08 15:17:28;;;;;;;16.90;13.30;;;;;;;12.45;54.06;100979.45;125867;1313;114936;-63
2023/04/08 15:29:58;;;;;;;20.30;16.40;;;;;;;12.52;53.53;100989.54;127146;1287;127550;-68
2023/04/08 15:34:05;;;;;;;20.20;16.50;;;;;;;12.42;53.24;100991.42;126751;1294;115420;-64
2023/04/08 15:38:06;;;;;;;19.80;15.10;;;;;;;12.34;53.97;100990.35;122188;1302;5427341;-69
2023/04/08 15:55:05;;;;;;;15.90;13.00;;;;;;;12.17;53.81;100998.46;127071;1296;115291;-66
2023/04/08 16:03:10;;;;;;;28.00;20.40;;;;;;;12.00;53.86;100999.04;125049;1308;114948;-65
2023/04/08 16:11:42;;;;;;;26.70;17.40;;;;;;;11.95;54.33;100997.27;125925;1311;636230;-64
2023/04/08 16:15:43;;;;;;;47.90;27.00;;;;;;;11.87;54.06;101001.88;127281;1298;129013;-65
2023/04/08 16:19:47;;;;;;;20.10;14.50;;;;;;;11.83;54.25;101001.00;126224;1296;115323;-67
2023/04/08 16:28:22;;;;;;;18.60;15.40;;;;;;;11.82;54.58;101002.28;125479;1304;640262;-66
2023/04/08 16:32:24;;;;;;;22.60;15.30;;;;;;;11.81;54.83;101005.74;127441;1285;129051;-65
2023/04/08 16:36:26;;;;;;;18.60;14.90;;;;;;;11.78;54.80;101004.95;126393;1295;115295;-65
2023/04/08 16:40:26;;;;;;;;;;;;;;;;;;;;;
2023/04/08 16:49:01;;;;;;;21.20;15.10;;;;;;;11.67;55.16;101016.18;125814;1299;639325;-64
2023/04/08 16:53:00;;;;;;;;;;;;;;;;;;;;;
2023/04/08 16:57:06;;;;;;;18.80;15.00;;;;;;;11.57;55.39;101024.64;127004;1303;115017;-65
2023/04/08 17:09:11;;;;;;;;;;;;;;;;;;;;;
2023/04/08 17:13:37;;;;;;;23.00;16.00;;;;;;;11.31;55.75;101027.85;126279;1307;635894;-65
2023/04/08 17:17:40;;;;;;;23.10;16.10;;;;;;;11.22;56.30;101033.23;128681;1276;128125;-66
2023/04/08 17:25:45;;;;;;;26.90;17.80;;;;;;;11.06;56.57;101043.52;123949;1287;5454911;-65
2023/04/08 17:29:45;;;;;;;25.60;17.10;;;;;;;10.96;56.60;101045.16;126941;1292;114986;-65
2023/04/08 17:38:21;;;;;;;30.20;19.60;;;;;;;10.79;57.22;101050.43;125754;1301;640647;-64
2023/04/08 17:42:23;;;;;;;25.90;18.10;;;;;;;10.68;57.14;101052.48;126943;1308;128416;-65
2023/04/08 17:58:49;;;;;;;;;;;;;;;;;;;;;
2023/04/08 18:06:19;;;;;;;34.80;22.20;;;;;;;10.15;58.65;101065.45;125708;1304;114958;-65
2023/04/08 18:10:27;;;;;;;;;;;;;;;;;;;;;
2023/04/08 18:14:29;;;;;;;31.90;20.80;;;;;;;9.98;58.81;101075.67;125180;1310;115073;-66
2023/04/08 18:18:23;;;;;;;;;;;;;;;;;;;;;
2023/04/08 18:22:24;;;;;;;;;;;;;;;;;;;;;
2023/04/08 18:27:00;;;;;;;29.90;21.60;;;;;;;9.83;59.62;101088.15;125944;1297;640009;-65
2023/04/08 18:35:05;;;;;;;34.80;23.60;;;;;;;9.70;59.79;101096.80;126424;1303;115314;-65
2023/04/08 18:39:07;;;;;;;33.80;23.60;;;;;;;9.66;59.94;101100.30;121749;1301;5479143;-64
2023/04/08 18:47:40;;;;;;;36.00;24.40;;;;;;;9.64;60.47;101105.53;126449;1295;637499;-65
2023/04/08 18:51:41;;;;;;;32.40;22.20;;;;;;;9.59;60.21;101108.90;127902;1284;128040;-65
2023/04/08 18:59:48;;;;;;;34.00;23.20;;;;;;;9.53;60.66;101112.49;122302;1306;5433720;-66
2023/04/08 19:03:50;;;;;;;40.70;26.70;;;;;;;9.49;60.62;101111.19;124763;1325;114967;-65
2023/04/08 19:12:26;;;;;;;36.40;23.10;;;;;;;9.47;60.93;101110.91;125669;1305;639669;-66
2023/04/08 19:16:28;;;;;;;36.10;23.60;;;;;;;9.41;61.19;101110.17;127717;1295;127845;-65
2023/04/08 19:20:29;;;;;;;39.10;23.70;;;;;;;9.36;61.17;101104.98;126173;1299;115196;-65
2023/04/08 19:24:22;;;;;;;;;;;;;;;;;;;;;
2023/04/08 19:28:46;;;;;;;32.10;22.30;;;;;;;9.25;61.43;101112.66;124384;1332;114913;-65
2023/04/08 19:36:52;;;;;;;;;;;;;;;;;;;;;
2023/04/08 19:40:56;;;;;;;37.90;25.50;;;;;;;9.14;62.06;101109.95;127688;1283;129776;-65
2023/04/08 19:49:23;;;;;;;;;;;;;;;;;;;;;
2023/04/08 19:53:28;;;;;;;35.90;25.00;;;;;;;9.04;62.60;101112.02;127857;1284;128916;-64
2023/04/08 19:57:31;;;;;;;39.60;26.30;;;;;;;9.02;62.52;101114.43;126675;1310;115249;-65
2023/04/08 20:01:34;;;;;;;51.30;34.80;;;;;;;8.97;63.05;101115.08;122589;1293;5440712;-65
2023/04/08 20:05:32;;;;;;;43.00;28.40;;;;;;;8.95;63.10;101111.59;126516;1296;115165;-64
2023/04/08 20:09:34;;;;;;;41.70;28.70;;;;;;;8.92;63.10;101116.14;125932;1298;114856;-65
2023/04/08 20:22:20;;;;;;;46.80;30.80;;;;;;;8.80;63.45;101118.80;128580;1277;129703;-66
2023/04/08 20:26:32;;;;;;;42.70;30.10;;;;;;;8.77;63.59;101122.09;128701;1293;115369;-65
2023/04/08 20:30:37;;;;;;;46.00;31.40;;;;;;;8.74;64.02;101115.95;124096;1284;5425196;-67
2023/04/08 20:38:33;;;;;;;;;;;;;;;;;;;;;
2023/04/08 20:43:00;;;;;;;50.30;32.90;;;;;;;8.70;64.09;101112.85;125698;1303;636190;-64
2023/04/08 20:46:49;;;;;;;;;;;;;;;;;;;;;
2023/04/08 20:50:53;;;;;;;52.20;32.60;;;;;;;8.65;64.56;101120.29;127362;1296;115455;-65
2023/04/08 20:54:54;;;;;;;52.40;34.50;;;;;;;8.62;64.40;101117.02;122316;1296;5437939;-66
2023/04/08 21:02:55;;;;;;;;;;;;;;;;;;;;;
2023/04/08 21:07:53;;;;;;;58.10;34.00;;;;;;;8.51;64.76;101127.09;125702;1299;638809;-64
2023/04/08 21:11:04;;;;;;;;;;;;;;;;;;;;;
2023/04/08 21:15:08;;;;;;;59.50;34.90;;;;;;;8.42;65.11;101127.48;126819;1292;114963;-66
2023/04/08 21:18:56;;;;;;;51.90;33.60;;;;;;;8.37;65.42;101127.97;123643;1302;5447161;-66
2023/04/08 21:22:31;;;;;;;;;;;;;;;;;;;;;
2023/04/08 21:42:45;;;;;;;;;;;;;;;8.17;65.66;101126.71;128031;1287;128231;-66
2023/04/08 21:46:47;;;;;;;53.40;33.30;;;;;;;8.14;65.74;101126.80;128021;1301;115288;-67
2023/04/08 21:50:48;;;;;;;;;;;;;;;;;;;;;
2023/04/08 21:54:52;;;;;;;62.60;40.00;;;;;;;8.06;66.08;101124.52;122913;1298;114961;-66
2023/04/08 22:02:55;;;;;;;54.10;33.90;;;;;;;7.97;66.06;101123.86;125482;1301;115022;-65
2023/04/08 22:11:25;;;;;;;56.70;35.00;;;;;;;7.92;66.45;101115.79;126449;1295;640437;-65
2023/04/08 22:15:28;;;;;;;56.40;34.80;;;;;;;7.89;66.32;101114.79;127034;1290;128862;-62
2023/04/08 22:35:47;;;;;;;46.50;31.70;;;;;;;7.83;66.62;101101.08;128014;1279;127853;-65
2023/04/08 22:39:50;;;;;;;53.00;32.60;;;;;;;7.82;66.50;101096.66;126705;1288;115247;-66
2023/04/08 22:43:51;;;;;;;47.30;32.40;;;;;;;7.81;66.59;101096.34;121605;1307;5452197;-66
2023/04/08 22:47:53;;;;;;;48.00;32.00;;;;;;;7.81;66.83;101103.97;124554;1310;114877;-65
2023/04/08 22:51:54;;;;;;;47.40;32.00;;;;;;;7.80;66.82;101106.50;124507;1316;114939;-64
2023/04/08 23:04:23;;;;;;;53.10;34.10;;;;;;;7.73;66.76;101107.90;128072;1296;128270;-64
2023/04/08 23:08:27;;;;;;;58.30;35.50;;;;;;;7.70;66.74;101110.30;128131;1292;115032;-65
2023/04/08 23:12:22;;;;;;;56.40;35.40;;;;;;;7.66;66.80;101106.83;123313;1289;5434422;-66
2023/04/08 23:20:25;;;;;;;54.20;33.80;;;;;;;7.58;67.11;101113.08;125355;1308;114848;-65
2023/04/08 23:24:26;;;;;;;58.60;37.40;;;;;;;7.55;67.15;101112.79;125139;1308;116511;-65
2023/04/08 23:28:28;;;;;;;46.40;29.60;;;;;;;7.51;67.14;101111.83;124507;1315;129852;-66
2023/04/08 23:37:03;;;;;;;56.30;36.50;;;;;;;7.43;67.14;101101.33;125934;1305;637009;-66
2023/04/08 23:45:08;;;;;;;54.90;36.40;;;;;;;7.35;67.37;101090.15;126222;1298;115630;-66
2023/04/08 23:49:10;;;;;;;57.00;37.20;;;;;;;7.32;67.59;101085.77;121735;1304;5502312;-65
2023/04/08 23:57:48;;;;;;;56.60;37.30;;;;;;;7.30;67.64;101088.51;125670;1298;636565;-65
